Korsakov, Russia
Current Conditions -  °F | °C
As of 7:30 AM on Friday 19 Dec 2014 (Local Time) from UHSS Reporting Station
Broken Clouds Broken Clouds  
Wind Chill: -2°   Ceiling: 4000
Heat Index:   Visibility: 6mi
Dew Point:   Wind: 4mph
Humidity: 92%   Direction: 130°SE
Pressure: 30.15"   Gusts: NA
Location:  46.64°N, 142.78°E
Report Text: UHSS 182030Z 13002MPS 9999 BKN040CB M14/M15 Q1021 NOSIG RMKQFE765/1020 01820335
Loading
Personal Weather Stations






























Interactive Weather Map New forecast layout! Learn more

10-Day Weather Forecast

Advertisements
Track Severe Weather on mobile